createdAt,value
2023-03-21T00:01:52.906Z,60.63
2023-03-21T00:04:25.732Z,60.47
2023-03-21T00:06:55.605Z,60.55
2023-03-21T00:09:24.502Z,60.57
2023-03-21T00:11:54.296Z,60.75
2023-03-21T00:14:26.263Z,60.29
2023-03-21T00:16:56.420Z,60.44
2023-03-21T00:25:09.762Z,61.68
2023-03-21T00:28:05.284Z,61.82
2023-03-21T00:39:25.252Z,61.95
2023-03-21T00:41:59.463Z,61.33
2023-03-21T00:56:35.053Z,60.40
2023-03-21T00:59:13.283Z,60.25
2023-03-21T01:01:47.455Z,59.91
2023-03-21T01:04:22.622Z,59.60
2023-03-21T01:06:56.202Z,59.90
2023-03-21T01:30:51.316Z,62.03
2023-03-21T01:33:46.839Z,61.69
2023-03-21T01:46:49.662Z,60.72
2023-03-21T01:49:39.203Z,61.07
2023-03-21T01:52:26.498Z,61.45
2023-03-21T01:55:00.768Z,61.28
2023-03-21T01:57:42.381Z,61.10
2023-03-21T02:00:15.790Z,61.58
2023-03-21T02:03:06.115Z,61.47
2023-03-21T02:06:00.849Z,61.52
2023-03-21T02:08:39.897Z,61.50
2023-03-21T02:11:14.129Z,61.53
2023-03-21T02:13:53.614Z,61.37
2023-03-21T02:16:49.264Z,61.47
2023-03-21T02:20:16.755Z,61.63
2023-03-21T03:08:07.460Z,61.89
2023-03-21T03:32:22.885Z,62.07
2023-03-21T03:35:08.771Z,62.20
2023-03-21T03:38:01.205Z,62.11
2023-03-21T03:41:14.246Z,62.11
2023-03-21T04:03:16.273Z,62.48
2023-03-21T04:07:45.662Z,61.30
2023-03-21T04:10:17.004Z,60.97
2023-03-21T04:12:46.257Z,60.85
2023-03-21T04:15:40.874Z,61.12
2023-03-21T04:18:15.570Z,60.91
2023-03-21T04:20:45.569Z,60.60
2023-03-21T04:23:19.837Z,60.72
2023-03-21T04:25:56.439Z,60.50
2023-03-21T04:28:33.931Z,60.73
2023-03-21T04:31:28.506Z,60.62
2023-03-21T04:34:10.172Z,60.38
2023-03-21T04:36:46.868Z,59.87
2023-03-21T04:39:18.451Z,59.64
2023-03-21T04:41:50.093Z,59.48
2023-03-21T04:44:22.346Z,59.49
2023-03-21T04:46:52.008Z,59.79
2023-03-21T04:49:21.584Z,59.74
2023-03-21T04:51:50.886Z,59.69
2023-03-21T04:54:22.061Z,59.56
2023-03-21T04:56:55.481Z,59.61
2023-03-21T04:59:28.901Z,59.23
2023-03-21T05:01:58.897Z,59.44
2023-03-21T05:04:28.206Z,59.45
2023-03-21T05:06:57.711Z,59.37
2023-03-21T05:09:26.411Z,59.26
2023-03-21T05:11:55.199Z,59.23
2023-03-21T05:14:25.159Z,59.21
2023-03-21T05:16:55.766Z,58.92
2023-03-21T05:19:35.719Z,59.05
2023-03-21T05:22:06.981Z,58.50
2023-03-21T05:24:39.491Z,58.63
2023-03-21T05:27:14.369Z,58.79
2023-03-21T05:29:46.368Z,57.88
2023-03-21T05:32:15.375Z,57.09
2023-03-21T05:34:44.357Z,58.08
2023-03-21T05:37:14.205Z,57.22
2023-03-21T05:39:50.658Z,57.07
2023-03-21T05:42:30.930Z,56.61
2023-03-21T05:44:59.814Z,56.21
2023-03-21T05:47:33.363Z,55.27
2023-03-21T05:50:02.215Z,55.12
2023-03-21T05:52:32.096Z,54.45
2023-03-21T05:55:04.186Z,55.23
2023-03-21T05:57:39.302Z,54.64
2023-03-21T06:00:11.101Z,54.40
2023-03-21T06:02:46.680Z,53.45
2023-03-21T06:05:37.832Z,53.41
2023-03-21T06:08:08.492Z,53.40
2023-03-21T06:10:38.473Z,52.66
2023-03-21T06:13:07.577Z,52.55
2023-03-21T06:15:40.601Z,51.88
2023-03-21T06:18:21.435Z,51.67
2023-03-21T06:21:17.797Z,50.98
2023-03-21T06:23:47.194Z,52.31
2023-03-21T06:26:15.812Z,51.54
2023-03-21T06:28:44.474Z,51.55
2023-03-21T06:31:13.770Z,51.17
2023-03-21T06:33:44.473Z,51.47
2023-03-21T06:36:13.364Z,50.92
2023-03-21T06:38:42.581Z,50.40
2023-03-21T06:41:11.449Z,49.89
2023-03-21T06:43:49.544Z,50.30
2023-03-21T06:46:18.370Z,50.97
2023-03-21T06:48:48.012Z,50.38
2023-03-21T06:51:19.105Z,50.85
2023-03-21T06:54:18.215Z,50.89
2023-03-21T06:56:57.250Z,51.76
2023-03-21T06:59:30.721Z,52.17
2023-03-21T07:02:05.055Z,52.14
2023-03-21T07:04:35.922Z,52.90
2023-03-21T07:07:04.857Z,53.78
2023-03-21T07:09:33.831Z,54.26
2023-03-21T07:12:06.462Z,54.52
2023-03-21T07:14:47.525Z,55.38
2023-03-21T07:17:17.464Z,55.54
2023-03-21T07:19:46.408Z,55.49
2023-03-21T07:22:16.016Z,55.46
2023-03-21T07:25:02.341Z,55.52
2023-03-21T07:27:34.945Z,56.02
2023-03-21T07:30:05.324Z,55.91
2023-03-21T07:32:35.734Z,56.99
2023-03-21T07:35:05.010Z,57.49
2023-03-21T07:37:33.607Z,57.80
2023-03-21T07:40:02.448Z,57.83
2023-03-21T07:45:03.770Z,58.79
2023-03-21T07:47:35.660Z,58.38
2023-03-21T07:50:05.431Z,58.30
2023-03-21T07:52:37.184Z,58.77
2023-03-21T07:55:06.463Z,59.27
2023-03-21T07:57:36.805Z,59.20
2023-03-21T08:00:07.439Z,59.17
2023-03-21T08:02:42.009Z,59.04
2023-03-21T08:05:11.902Z,59.22
2023-03-21T08:07:40.852Z,59.63
2023-03-21T08:10:11.069Z,59.58
2023-03-21T08:12:44.201Z,59.57
2023-03-21T08:15:14.136Z,59.29
2023-03-21T08:17:46.494Z,59.70
2023-03-21T08:20:26.954Z,59.66
2023-03-21T08:23:03.253Z,60.23
2023-03-21T08:25:33.955Z,60.30
2023-03-21T08:28:10.226Z,60.20
2023-03-21T08:30:44.023Z,59.63
2023-03-21T08:33:20.260Z,59.36
2023-03-21T08:35:54.560Z,59.36
2023-03-21T08:38:27.756Z,59.16
2023-03-21T08:41:01.806Z,59.06
2023-03-21T08:43:31.366Z,59.00
2023-03-21T08:46:00.788Z,58.94
2023-03-21T08:48:30.540Z,58.38
2023-03-21T08:51:02.839Z,58.31
2023-03-21T08:53:33.467Z,58.13
2023-03-21T08:56:05.166Z,57.80
2023-03-21T08:58:34.655Z,57.55
2023-03-21T09:01:11.534Z,57.94
2023-03-21T09:03:40.743Z,57.47
2023-03-21T09:06:14.576Z,57.30
2023-03-21T09:08:46.523Z,57.20
2023-03-21T09:11:16.111Z,57.39
2023-03-21T09:13:45.673Z,57.04
2023-03-21T09:16:14.460Z,56.73
2023-03-21T09:18:49.139Z,56.73
2023-03-21T09:21:18.682Z,56.67
2023-03-21T09:23:53.361Z,56.51
2023-03-21T09:26:26.211Z,56.59
2023-03-21T09:29:00.494Z,56.08
2023-03-21T09:31:45.745Z,55.61
2023-03-21T09:34:16.209Z,55.24
2023-03-21T09:37:05.864Z,54.89
2023-03-21T09:43:01.857Z,52.50
2023-03-21T09:45:59.387Z,52.00
2023-03-21T09:49:01.003Z,51.40
2023-03-21T09:55:37.196Z,49.27
2023-03-21T09:58:44.324Z,48.86
2023-03-21T10:01:31.367Z,49.12
2023-03-21T10:04:10.623Z,49.29
2023-03-21T10:06:41.485Z,48.45
2023-03-21T10:09:23.823Z,48.34
2023-03-21T10:12:15.007Z,47.70
2023-03-21T10:14:45.594Z,48.15
2023-03-21T10:17:22.439Z,47.78
2023-03-21T10:20:13.497Z,47.59
2023-03-21T10:22:46.256Z,47.74
2023-03-21T10:25:23.078Z,47.93
2023-03-21T10:27:52.999Z,47.89
2023-03-21T10:30:43.163Z,48.17
2023-03-21T10:33:14.643Z,48.39
2023-03-21T10:35:46.176Z,47.95
2023-03-21T10:38:19.558Z,48.00
2023-03-21T10:40:48.633Z,47.81
2023-03-21T10:43:27.825Z,48.30
2023-03-21T10:45:57.374Z,48.48
2023-03-21T10:48:27.318Z,48.32
2023-03-21T10:50:56.484Z,48.37
2023-03-21T10:53:42.838Z,48.59
2023-03-21T10:56:12.454Z,48.56
2023-03-21T10:58:47.305Z,48.17
2023-03-21T11:01:31.136Z,47.63
2023-03-21T11:04:06.921Z,47.87
2023-03-21T11:06:38.627Z,47.61
2023-03-21T11:09:09.987Z,47.98
2023-03-21T11:12:01.819Z,47.20
2023-03-21T11:14:38.788Z,46.74
2023-03-21T11:17:34.733Z,46.16
2023-03-21T11:20:09.242Z,46.42
2023-03-21T11:22:43.655Z,46.03
2023-03-21T11:25:23.561Z,45.92
2023-03-21T11:27:54.355Z,45.46
2023-03-21T11:30:25.106Z,44.41
2023-03-21T11:32:58.002Z,44.76
2023-03-21T11:35:38.553Z,44.49
2023-03-21T11:38:26.265Z,44.39
2023-03-21T11:40:58.523Z,43.31
2023-03-21T11:43:29.820Z,43.55
2023-03-21T11:46:05.969Z,43.40
2023-03-21T11:48:47.219Z,43.23
2023-03-21T11:51:41.878Z,43.28
2023-03-21T11:54:36.698Z,43.37
2023-03-21T11:57:27.669Z,43.01
2023-03-21T12:00:24.024Z,42.53
2023-03-21T12:03:35.331Z,42.46
2023-03-21T12:06:38.167Z,41.08
2023-03-21T12:09:28.904Z,41.36
2023-03-21T12:12:16.706Z,41.09
2023-03-21T12:15:24.128Z,41.21
2023-03-21T12:18:20.523Z,41.03
2023-03-21T12:21:30.832Z,39.91
2023-03-21T12:24:20.785Z,39.83
2023-03-21T12:27:19.870Z,39.68
2023-03-21T12:29:51.682Z,39.35
2023-03-21T12:32:35.564Z,39.51
2023-03-21T12:35:17.023Z,38.35
2023-03-21T12:37:52.129Z,38.58
2023-03-21T12:40:32.868Z,39.62
2023-03-21T12:43:23.161Z,39.15
2023-03-21T12:45:54.766Z,38.77
2023-03-21T12:48:48.101Z,38.23
2023-03-21T12:51:19.999Z,38.58
2023-03-21T12:53:53.297Z,38.24
2023-03-21T12:56:34.248Z,38.50
2023-03-21T12:59:11.773Z,38.03
2023-03-21T13:01:40.739Z,38.83
2023-03-21T13:04:20.967Z,38.32
2023-03-21T13:06:50.431Z,38.54
2023-03-21T13:09:37.677Z,38.62
2023-03-21T13:12:20.235Z,38.56
2023-03-21T13:15:03.540Z,38.53
2023-03-21T13:17:37.474Z,39.10
2023-03-21T13:20:14.452Z,39.15
2023-03-21T13:22:43.867Z,38.80
2023-03-21T13:25:19.577Z,38.77
2023-03-21T13:27:53.286Z,38.29
2023-03-21T13:30:26.380Z,39.02
2023-03-21T13:32:56.901Z,39.17
2023-03-21T13:35:38.537Z,38.61
2023-03-21T13:39:18.183Z,38.38
2023-03-21T13:41:49.273Z,38.32
2023-03-21T13:44:32.388Z,37.93
2023-03-21T13:47:06.301Z,37.90
2023-03-21T13:49:36.973Z,38.40
2023-03-21T13:52:12.414Z,38.33
2023-03-21T13:54:56.903Z,38.79
2023-03-21T13:57:30.679Z,38.70
2023-03-21T14:00:21.352Z,39.13
2023-03-21T14:03:18.384Z,38.97
2023-03-21T14:05:51.181Z,39.12
2023-03-21T14:08:31.215Z,39.38
2023-03-21T14:11:07.766Z,39.63
2023-03-21T14:13:48.262Z,39.03
2023-03-21T14:16:20.486Z,38.94
2023-03-21T14:18:55.639Z,39.13
2023-03-21T14:21:30.666Z,39.23
2023-03-21T14:24:04.399Z,39.62
2023-03-21T14:26:40.852Z,39.03
2023-03-21T14:29:26.193Z,39.34
2023-03-21T14:31:56.609Z,38.97
2023-03-21T14:34:33.826Z,39.52
2023-03-21T14:37:03.512Z,39.46
2023-03-21T14:39:33.292Z,39.49
2023-03-21T14:42:07.723Z,39.54
2023-03-21T14:44:55.887Z,39.87
2023-03-21T14:47:28.173Z,40.03
2023-03-21T14:49:57.479Z,40.46
2023-03-21T14:52:28.440Z,40.38
2023-03-21T14:55:00.609Z,40.49
2023-03-21T14:57:34.217Z,40.83
2023-03-21T15:00:13.183Z,40.96
2023-03-21T15:02:42.528Z,41.08
2023-03-21T15:05:16.637Z,41.28
2023-03-21T15:07:58.738Z,41.49
2023-03-21T15:10:29.171Z,41.63
2023-03-21T15:13:00.698Z,41.93
2023-03-21T15:15:31.157Z,41.99
2023-03-21T15:18:06.173Z,42.30
2023-03-21T15:20:39.483Z,42.53
2023-03-21T15:23:18.828Z,42.74
2023-03-21T15:25:47.665Z,43.04
2023-03-21T15:28:18.224Z,43.27
2023-03-21T15:30:53.413Z,43.60
2023-03-21T15:33:24.770Z,43.83
2023-03-21T15:35:58.031Z,43.92
2023-03-21T15:38:36.515Z,44.19
2023-03-21T15:41:20.698Z,44.28
2023-03-21T15:44:00.615Z,44.30
2023-03-21T15:46:50.847Z,44.50
2023-03-21T15:49:23.006Z,44.51
2023-03-21T15:52:08.391Z,44.57
2023-03-21T15:54:58.582Z,44.79
2023-03-21T15:57:33.203Z,44.93
2023-03-21T16:00:25.193Z,44.96
2023-03-21T16:02:59.677Z,45.10
2023-03-21T16:05:30.955Z,44.85
2023-03-21T16:08:04.263Z,44.96
2023-03-21T16:10:39.031Z,45.13
2023-03-21T16:13:12.441Z,45.13
2023-03-21T16:15:41.511Z,44.91
2023-03-21T16:18:18.493Z,44.88
2023-03-21T16:20:49.359Z,45.01
2023-03-21T16:23:18.018Z,45.27
2023-03-21T16:29:08.840Z,45.94
2023-03-21T16:32:24.283Z,46.11
2023-03-21T16:38:59.446Z,46.45
2023-03-21T16:45:09.773Z,46.60
2023-03-21T16:47:45.188Z,46.65
2023-03-21T16:50:27.519Z,46.51
2023-03-21T16:53:03.452Z,46.55
2023-03-21T16:59:17.205Z,47.13
2023-03-21T17:01:48.986Z,46.81
2023-03-21T17:04:18.793Z,46.62
2023-03-21T17:06:50.558Z,46.75
2023-03-21T17:09:22.797Z,46.79
2023-03-21T17:11:57.293Z,46.88
2023-03-21T17:14:27.629Z,46.67
2023-03-21T17:16:56.933Z,46.89
2023-03-21T17:19:28.532Z,47.08
2023-03-21T17:21:58.831Z,47.33
2023-03-21T17:24:30.568Z,47.40
2023-03-21T17:27:22.474Z,47.16
2023-03-21T17:29:58.560Z,47.33
2023-03-21T17:32:29.529Z,47.40
2023-03-21T17:34:58.946Z,47.26
2023-03-21T17:37:27.560Z,47.11
2023-03-21T17:39:56.626Z,46.95
2023-03-21T17:42:25.512Z,47.04
2023-03-21T17:44:54.771Z,47.20
2023-03-21T17:47:26.096Z,47.16
2023-03-21T17:49:56.560Z,47.30
2023-03-21T17:52:25.376Z,47.16
2023-03-21T17:54:53.991Z,47.38
2023-03-21T17:57:23.033Z,47.42
2023-03-21T17:59:52.347Z,47.52
2023-03-21T18:02:24.071Z,47.58
2023-03-21T18:04:53.739Z,47.64
2023-03-21T18:07:53.067Z,47.79
2023-03-21T18:10:16.963Z,47.73
2023-03-21T18:12:47.777Z,47.99
2023-03-21T18:15:19.418Z,48.12
2023-03-21T18:17:49.373Z,48.23
2023-03-21T18:20:21.273Z,48.31
2023-03-21T18:22:53.016Z,48.39
2023-03-21T18:25:21.980Z,48.43
2023-03-21T18:28:09.889Z,48.61
2023-03-21T18:31:00.355Z,48.64
2023-03-21T18:33:28.600Z,48.71
2023-03-21T18:35:59.349Z,48.57
2023-03-21T18:38:29.699Z,48.76
2023-03-21T18:41:01.762Z,48.81
2023-03-21T18:46:23.190Z,48.76
2023-03-21T18:48:51.937Z,48.77
2023-03-21T18:51:21.965Z,49.25
2023-03-21T18:53:51.805Z,49.35
2023-03-21T18:57:26.767Z,49.55
2023-03-21T18:59:41.708Z,49.71
2023-03-21T19:02:12.855Z,49.93
2023-03-21T19:05:17.847Z,49.79
2023-03-21T19:07:59.779Z,49.89
2023-03-21T19:11:42.746Z,49.79
2023-03-21T19:21:29.074Z,49.91
2023-03-21T19:24:28.562Z,49.98
2023-03-21T19:27:06.092Z,50.07
2023-03-21T19:47:34.299Z,50.17
2023-03-21T20:25:48.588Z,51.90
2023-03-21T20:28:56.641Z,51.42
2023-03-21T20:31:34.213Z,51.37
2023-03-21T20:34:03.702Z,51.41
2023-03-21T20:36:40.171Z,51.47
2023-03-21T20:39:11.931Z,51.61
2023-03-21T20:41:41.853Z,51.51
2023-03-21T20:44:45.155Z,51.55
2023-03-21T20:47:06.628Z,51.67
2023-03-21T20:49:39.056Z,51.66
2023-03-21T20:54:58.118Z,51.78
2023-03-21T20:57:28.438Z,51.60
2023-03-21T20:59:57.819Z,51.61
2023-03-21T21:02:26.946Z,51.81
2023-03-21T21:05:24.149Z,51.84
2023-03-21T21:07:46.425Z,51.99
2023-03-21T21:10:16.006Z,51.75
2023-03-21T21:12:47.600Z,51.55
2023-03-21T21:15:17.668Z,51.48
2023-03-21T21:18:07.330Z,51.52
2023-03-21T21:20:56.109Z,51.69
2023-03-21T21:23:37.680Z,52.09
2023-03-21T21:26:08.068Z,51.72
2023-03-21T21:28:38.730Z,51.44
2023-03-21T21:31:19.106Z,51.70
2023-03-21T21:33:50.332Z,51.90
2023-03-21T21:36:18.954Z,51.88
2023-03-21T21:38:49.328Z,51.92
2023-03-21T21:41:20.879Z,51.87
2023-03-21T21:47:18.876Z,52.28
2023-03-21T21:49:52.023Z,52.26
2023-03-21T21:52:37.729Z,52.28
2023-03-21T21:55:08.282Z,52.34
2023-03-21T21:58:02.472Z,52.40
2023-03-21T22:00:33.216Z,52.35
2023-03-21T22:03:02.895Z,52.32
2023-03-21T22:05:34.791Z,52.34
